Date,TemperatureHighF,TemperatureAvgF,TemperatureLowF,DewpointHighF,DewpointAvgF,DewpointLowF,HumidityHigh,HumidityAvg,HumidityLow,PressureMaxIn,PressureMinIn,WindSpeedMaxMPH,WindSpeedAvgMPH,GustSpeedMaxMPH,PrecipitationSumIn
2013-1-1,75,65,54,61,57,52,98,78,59,30.20,30.02,21,4,24,0.01
2013-1-2,77,68,64,68,66,61,99,91,76,30.05,29.98,15,3,17,0.01
2013-1-3,75,64,59,68,63,58,100,96,76,30.15,30.01,11,2,14,0.01
2013-1-4,62,58,55,60,57,54,98,97,91,30.26,30.14,9,2,10,0.01
2013-1-5,74,61,55,62,57,51,96,86,64,30.28,30.17,17,2,17,0.00
2013-1-6,79,66,61,69,63,59,99,91,69,30.18,30.06,10,2,12,0.01
2013-1-7,68,62,59,64,59,53,98,89,71,30.19,30.08,16,2,19,0.00
2013-1-8,83,70,61,69,65,60,98,84,59,30.20,30.10,14,2,15,0.01
2013-1-9,85,74,68,71,68,65,97,82,58,30.27,30.14,17,3,18,0.07
2013-1-10,83,74,68,70,66,63,98,79,55,30.27,30.18,22,3,22,0.06
2013-1-11,84,72,64,68,64,62,97,79,53,30.24,30.11,18,3,21,0.05
2013-1-12,82,71,65,69,66,64,97,85,59,30.16,30.06,17,3,18,0.04
2013-1-13,79,72,66,68,65,63,93,80,58,30.15,30.04,12,3,14,0.02
2013-1-14,79,70,63,66,62,59,97,78,54,30.17,30.09,13,2,16,0.00
2013-1-15,79,69,62,66,63,60,97,82,59,30.12,30.04,15,2,18,0.01
2013-1-16,80,70,64,67,64,59,98,82,51,30.09,29.99,15,3,16,0.00
2013-1-17,70,63,53,69,59,46,99,87,65,30.14,29.96,18,5,24,0.00
2013-1-18,66,55,43,54,47,37,81,73,57,30.30,30.14,16,3,17,0.00
2013-1-19,77,65,54,60,55,48,85,71,55,30.25,30.11,15,2,22,0.00
2013-1-20,79,65,59,63,59,55,92,80,58,30.16,30.03,9,2,13,0.00
2013-1-21,74,65,61,62,57,52,88,76,61,30.09,30.01,12,2,12,0.00
2013-1-22,70,60,52,53,42,31,77,53,29,30.27,30.06,11,2,12,0.00
2013-1-23,70,57,46,48,40,33,83,56,30,30.35,30.25,13,2,15,0.00
2013-1-24,72,58,46,56,50,42,95,77,41,30.33,30.24,9,1,10,0.00
2013-1-25,75,60,50,61,53,47,99,80,40,30.30,30.18,9,1,10,0.00
2013-1-26,76,63,52,60,56,51,98,82,56,30.27,30.17,7,1,8,0.01
2013-1-27,80,65,54,63,58,53,99,81,44,30.29,30.19,12,1,13,0.00
2013-1-28,83,70,62,66,63,59,96,80,53,30.30,30.19,14,2,18,0.00
2013-1-29,82,70,62,68,65,60,98,83,58,30.21,30.06,17,4,21,0.00
2013-1-30,77,72,67,67,66,64,91,82,69,30.06,29.88,34,10,38,0.00
2013-1-31,70,58,52,65,47,36,97,67,43,30.23,29.95,18,5,24,0.14
2013-2-1,68,57,46,47,40,32,74,56,28,30.35,30.21,14,3,14,0.00
2013-2-2,73,58,46,50,43,33,77,60,30,30.30,30.15,10,2,12,0.00
2013-2-3,73,59,46,57,50,43,93,74,55,30.19,30.09,9,2,10,0.00
2013-2-4,70,57,48,52,46,32,91,69,30,30.13,30.04,11,1,13,0.00
2013-2-5,74,61,49,58,50,41,84,68,40,30.08,29.99,15,2,16,0.00
2013-2-6,77,67,61,63,59,55,90,76,58,30.08,30.00,14,2,15,0.00
2013-2-7,77,69,63,67,64,59,96,84,61,30.04,29.85,32,7,32,0.13
2013-2-8,76,66,60,67,62,57,97,87,65,30.07,29.89,13,3,15,0.01
2013-2-9,79,65,55,61,56,52,97,77,40,30.18,30.05,19,2,19,0.00
2013-2-10,78,69,61,63,60,55,88,74,54,30.22,30.11,25,5,25,0.00
2013-2-11,78,70,63,67,64,61,92,82,67,30.17,30.06,24,6,27,0.00
2013-2-12,78,71,67,70,68,66,97,90,77,30.08,29.93,27,6,27,0.00
2013-2-13,78,70,59,73,67,56,99,93,84,29.98,29.83,23,5,27,0.31
2013-2-14,64,61,58,61,59,57,98,95,87,30.04,29.91,12,1,13,0.13
2013-2-15,69,60,55,59,55,50,98,85,63,30.07,29.95,7,2,9,0.14
2013-2-16,70,58,50,54,48,36,92,69,48,30.12,29.94,21,5,26,0.07
2013-2-17,56,48,40,40,30,21,72,49,35,30.33,30.12,16,4,21,0.01
2013-2-18,70,52,38,51,38,24,82,61,33,30.35,30.18,16,2,22,0.00
2013-2-19,74,64,53,62,56,48,94,77,58,30.20,30.07,22,4,26,0.00
2013-2-20,79,65,58,65,60,53,97,86,61,30.11,30.01,9,2,10,0.00
2013-2-21,79,68,58,66,61,52,93,81,61,30.09,29.97,16,3,20,0.00
2013-2-22,80,71,63,69,66,62,97,86,70,30.05,29.98,21,5,23,0.00
2013-2-23,75,71,68,71,69,67,99,94,88,29.99,29.89,22,6,25,0.00
2013-2-24,77,70,68,71,69,67,100,94,81,29.95,29.86,13,3,16,0.00
2013-2-25,79,73,68,72,69,67,98,88,72,29.89,29.75,20,5,25,0.00
2013-2-26,74,71,66,71,67,61,98,89,77,29.88,29.68,27,5,34,0.35
2013-2-27,73,65,59,62,57,53,87,76,56,29.98,29.86,11,4,13,0.09
2013-2-28,76,65,59,58,54,48,81,69,51,29.99,29.91,12,3,15,0.00
2013-3-1,65,58,52,50,45,38,74,62,51,30.02,29.91,14,4,15,0.00
2013-3-2,60,54,48,45,42,37,78,62,51,30.07,29.97,20,5,20,0.00
2013-3-3,57,49,43,41,37,30,72,62,52,30.15,29.98,17,4,18,0.00
2013-3-4,66,53,42,43,38,30,82,57,36,30.22,30.12,11,2,12,0.00
2013-3-5,71,59,45,61,52,41,89,77,58,30.16,30.02,17,3,18,0.00
2013-3-6,66,59,53,64,48,40,95,67,45,30.13,29.95,19,7,21,0.02
2013-3-7,63,54,44,47,40,34,86,62,37,30.22,30.12,13,3,14,0.00
2013-3-8,72,57,44,51,46,40,96,70,35,30.22,30.12,10,2,11,0.00
2013-3-9,74,61,49,55,49,43,92,68,35,30.21,30.12,13,2,18,0.00
2013-3-10,78,66,57,59,55,52,89,71,45,30.14,30.03,22,4,25,0.00
2013-3-11,75,67,59,62,59,56,91,75,56,30.08,29.86,25,6,25,0.00
2013-3-12,69,64,58,66,59,52,98,85,69,30.04,29.83,24,6,31,0.18
2013-3-13,70,62,57,53,48,43,81,61,42,30.19,30.03,14,5,16,0.00
2013-3-14,64,58,50,53,41,29,79,54,33,30.27,30.16,16,4,16,0.00
2013-3-15,71,58,44,49,43,32,94,62,25,30.28,30.16,10,2,11,0.00
2013-3-16,76,60,48,59,50,42,96,73,34,30.18,30.07,13,2,18,0.00
2013-3-17,74,64,54,60,57,53,97,80,58,30.12,29.99,16,3,19,0.01
2013-3-18,72,67,61,67,63,58,93,86,76,30.02,29.85,21,5,29,0.00
2013-3-19,82,69,62,67,64,61,98,84,59,30.00,29.88,10,2,13,0.00
2013-3-20,71,65,59,66,62,57,96,90,75,29.96,29.80,13,2,15,0.03
2013-3-21,70,60,49,59,46,33,97,62,27,29.99,29.87,12,3,13,0.00
2013-3-22,74,61,48,67,53,43,98,76,43,29.99,29.88,17,2,20,0.00
2013-3-23,78,70,65,73,68,64,99,95,85,29.96,29.79,20,6,23,0.00
2013-3-24,77,72,68,73,70,66,99,94,88,29.81,29.64,22,6,27,0.00
2013-3-25,68,62,57,67,51,41,96,68,43,30.05,29.74,17,6,19,0.01
2013-3-26,59,55,50,47,40,36,68,57,44,30.25,30.04,20,6,20,0.00
2013-3-27,61,52,43,43,37,31,81,58,42,30.33,30.21,12,3,13,0.00
2013-3-28,70,57,46,48,40,32,89,58,27,30.29,30.20,11,2,13,0.00
2013-3-29,75,60,48,52,47,34,89,65,27,30.32,30.19,15,2,15,0.00
2013-3-30,74,62,51,58,52,44,91,71,38,30.24,30.13,17,2,17,0.00
2013-3-31,75,66,58,62,57,52,92,74,47,30.14,29.99,24,4,24,0.00
2013-4-1,80,71,66,70,66,62,96,84,68,30.03,29.94,15,3,17,0.00
2013-4-2,80,70,62,67,64,61,98,83,61,30.09,29.99,6,1,8,0.00
2013-4-3,81,71,63,69,65,62,96,83,57,30.07,29.93,20,5,24,0.00
2013-4-4,73,70,66,69,67,63,97,91,71,30.03,29.84,21,5,26,0.00
2013-4-5,75,67,62,66,62,57,97,85,62,29.99,29.79,14,4,19,0.00
2013-4-6,75,65,54,60,56,50,89,75,50,30.10,29.99,10,3,14,0.00
2013-4-7,84,70,60,65,60,56,95,73,47,30.14,30.03,13,2,17,0.00
2013-4-8,87,73,66,66,61,55,86,69,37,30.11,30.02,15,3,17,0.00
2013-4-9,83,73,65,68,64,62,94,75,52,30.14,30.05,14,3,16,0.00
2013-4-10,88,75,66,69,65,62,91,72,48,30.10,29.95,16,4,18,0.00
2013-4-11,85,77,72,72,70,65,93,80,63,29.96,29.79,26,7,29,0.00
2013-4-12,77,75,71,74,72,68,96,90,86,29.91,29.76,30,7,33,0.01
2013-4-13,86,75,68,71,68,65,96,79,56,29.97,29.86,7,1,10,0.00
2013-4-14,81,74,68,73,68,61,92,83,73,29.99,29.84,21,6,24,0.00
2013-4-15,88,77,68,71,66,62,84,71,54,30.06,29.90,10,2,13,0.00
2013-4-16,93,79,68,74,70,66,96,75,48,30.11,30.01,18,3,18,0.00
2013-4-17,87,78,68,72,66,60,93,68,42,30.12,29.99,19,4,19,0.00
2013-4-18,88,78,69,72,68,64,90,73,52,30.03,29.93,14,4,19,0.00
2013-4-19,84,78,72,73,71,68,94,81,60,29.99,29.91,27,7,32,0.00
2013-4-20,76,69,61,73,63,57,94,82,67,30.13,29.96,13,3,16,0.07
2013-4-21,80,69,61,70,64,56,96,84,66,30.12,30.01,13,3,16,0.10
2013-4-22,87,72,66,70,67,63,99,84,54,30.06,29.96,17,2,18,0.07
2013-4-23,88,74,65,69,64,59,91,74,50,30.10,30.00,12,3,15,0.01
2013-4-24,87,73,65,68,63,56,90,73,41,30.12,30.05,16,3,17,0.00
2013-4-25,86,74,65,71,66,63,95,77,56,30.19,30.09,11,2,12,0.00
2013-4-26,86,76,67,72,67,64,91,75,58,30.23,30.13,9,2,11,0.00
2013-4-27,85,76,70,71,67,62,93,75,49,30.19,30.06,18,3,21,0.00
2013-4-28,86,76,68,69,66,60,85,71,47,30.11,29.95,19,4,21,0.00
2013-4-29,81,75,69,71,67,62,89,76,61,30.00,29.89,17,3,17,0.00
2013-4-30,92,77,67,72,69,66,97,80,46,29.98,29.89,10,2,12,0.03
2013-5-1,74,70,66,72,69,65,98,94,87,29.99,29.89,14,3,16,0.00
2013-5-2,83,72,66,71,68,64,98,87,67,29.95,29.80,10,2,14,0.00
2013-5-3,85,75,68,72,69,64,98,83,60,29.81,29.71,12,2,17,0.00
2013-5-4,82,72,66,70,67,64,95,83,65,29.81,29.67,14,2,15,0.00
2013-5-5,78,70,64,66,57,50,95,65,41,29.93,29.78,14,4,18,0.00
2013-5-6,78,70,65,64,58,55,80,66,48,30.01,29.88,12,3,14,0.00
2013-5-7,77,70,64,63,59,55,79,68,54,30.04,29.95,12,3,14,0.00
2013-5-8,81,72,64,65,61,57,85,69,52,30.12,30.02,9,2,10,0.00
2013-5-9,86,74,63,68,64,61,95,74,54,30.14,30.06,10,2,11,0.00
2013-5-10,88,75,64,70,66,61,97,76,46,30.12,29.98,15,2,17,0.00
2013-5-11,86,77,72,75,72,68,96,85,64,30.04,29.98,15,2,18,0.00
2013-5-12,87,77,70,74,70,68,97,80,60,30.04,29.91,10,2,12,0.00
2013-5-13,86,76,68,70,61,51,87,63,35,30.12,29.99,14,3,14,0.00
2013-5-14,86,73,60,60,49,37,73,46,22,30.20,30.10,11,2,17,0.00
2013-5-15,87,74,64,65,60,49,84,62,34,30.19,30.06,12,2,14,0.00
2013-5-16,86,75,67,68,64,59,86,70,50,30.12,29.99,11,2,13,0.00
2013-5-17,87,77,69,71,67,64,89,72,54,30.08,30.00,10,2,14,0.00
2013-5-18,88,78,71,75,70,66,93,77,54,30.09,30.01,11,2,11,0.00
2013-5-19,90,79,70,74,70,68,95,75,54,30.08,29.97,9,1,10,0.00
2013-5-20,91,80,73,75,70,64,86,73,53,30.05,29.95,12,2,15,0.00
2013-5-21,90,77,70,74,70,67,95,81,52,30.01,29.91,13,2,15,0.02
2013-5-22,87,78,71,74,71,68,94,80,60,29.96,29.88,9,2,13,0.00
2013-5-23,89,80,72,74,72,69,95,78,60,30.00,29.90,11,2,12,0.00
2013-5-24,92,82,75,78,72,67,90,74,49,30.06,29.96,10,3,11,0.00
2013-5-25,94,81,71,72,65,59,84,60,34,30.15,30.04,18,3,22,0.00
2013-5-26,88,78,70,65,59,51,77,55,31,30.19,30.08,23,3,23,0.00
2013-5-27,89,78,67,69,64,59,88,63,39,30.16,30.03,18,3,20,0.00
2013-5-28,90,78,70,73,70,67,95,77,50,30.12,29.99,22,5,33,0.49
2013-5-29,86,78,73,73,71,66,93,78,60,30.07,30.00,21,5,26,0.01
2013-5-30,88,80,75,73,71,68,90,75,58,30.06,29.97,26,6,29,0.00
2013-5-31,90,79,75,74,71,69,84,75,55,30.06,29.97,20,6,21,0.00
2013-6-1,88,79,72,77,73,69,97,81,61,30.03,29.93,15,3,20,0.21
2013-6-2,89,80,73,77,74,72,98,84,65,29.98,29.88,12,3,12,0.04
2013-6-3,84,79,75,76,74,72,96,86,72,29.98,29.88,15,3,16,0.00
2013-6-4,84,80,76,74,73,68,93,80,63,29.99,29.91,20,4,23,0.00
2013-6-5,84,78,73,75,72,70,94,83,67,29.98,29.86,15,4,17,0.04
2013-6-6,80,76,73,75,73,71,98,91,77,29.87,29.62,37,7,41,0.04
2013-6-7,86,80,75,76,73,71,89,81,69,29.94,29.76,12,2,15,0.01
2013-6-8,89,79,72,78,74,70,98,86,68,30.08,29.94,19,3,21,0.00
2013-6-9,91,79,72,80,74,71,98,87,61,30.07,29.99,14,3,15,0.00
2013-6-10,91,81,76,78,75,73,95,82,63,30.06,29.99,12,2,13,0.00
2013-6-11,95,83,75,80,76,72,94,80,58,30.07,29.99,8,1,11,0.00
2013-6-12,94,84,74,78,75,72,93,76,56,30.06,29.98,10,2,10,0.00
2013-6-13,92,83,77,77,75,72,92,77,57,30.03,29.90,9,2,9,0.00
2013-6-14,90,82,79,76,74,72,85,77,62,29.94,29.86,12,2,12,0.00
2013-6-15,91,83,79,78,76,73,87,79,66,30.04,29.89,12,2,13,0.00
2013-6-16,90,82,76,79,76,73,97,82,68,30.06,29.99,18,2,24,0.00
2013-6-17,92,84,77,78,76,74,93,77,60,30.05,29.97,8,2,10,0.00
2013-6-18,92,84,76,78,76,74,93,78,61,30.04,29.95,10,1,12,0.00
2013-6-19,94,85,76,80,76,73,94,76,56,30.02,29.96,9,1,12,0.00
2013-6-20,95,85,77,78,75,69,93,73,51,30.09,29.99,10,1,10,0.00
2013-6-21,94,83,75,77,73,69,89,74,56,30.09,30.04,18,2,22,0.00
2013-6-22,96,81,74,76,72,66,94,76,46,30.09,30.02,12,3,14,0.00
2013-6-23,95,81,71,77,74,68,97,82,50,30.11,30.03,19,2,24,0.00
2013-6-24,95,83,74,77,75,71,96,78,54,30.16,30.04,12,2,22,0.00
2013-6-25,94,82,73,78,74,69,98,79,53,30.14,30.00,18,2,19,0.00
2013-6-26,92,81,74,78,74,70,95,82,61,30.05,29.98,19,2,22,0.00
2013-6-27,95,83,73,77,74,71,95,78,56,30.03,29.93,8,2,9,0.00
2013-6-28,91,83,78,78,76,74,88,78,63,29.95,29.83,12,2,16,0.00
2013-6-29,84,80,75,78,75,71,95,83,71,29.87,29.78,14,2,16,0.00
2013-6-30,88,82,77,78,75,72,88,80,71,29.86,29.78,18,4,19,0.00
2013-7-1,79,75,71,76,74,70,98,94,89,29.96,29.80,19,5,24,0.00
2013-7-2,86,78,72,77,73,71,99,87,69,30.05,29.92,17,5,22,0.00
2013-7-3,87,77,71,76,74,70,98,89,68,30.09,30.00,25,4,30,0.00
2013-7-4,87,77,72,76,73,70,98,89,66,30.13,30.02,20,4,27,0.00
2013-7-5,88,77,72,76,74,71,99,92,65,30.11,30.04,28,3,31,0.00
2013-7-6,92,81,74,77,74,70,97,82,54,30.09,30.00,21,4,21,0.00
2013-7-7,93,81,75,77,75,72,98,83,53,30.11,29.99,16,2,20,0.00
2013-7-8,94,81,73,79,75,69,98,84,58,30.14,30.04,21,2,21,0.00
2013-7-9,94,82,75,79,74,69,98,79,56,30.14,30.02,11,2,16,0.00
2013-7-10,93,82,74,76,74,70,96,76,55,30.07,29.94,14,2,17,0.00
2013-7-11,89,79,74,79,75,72,98,88,67,30.01,29.91,9,1,12,0.00
2013-7-12,91,82,76,78,75,73,93,78,59,29.94,29.87,9,1,10,0.00
2013-7-13,86,78,73,80,74,71,98,89,70,29.95,29.88,13,2,13,0.00
2013-7-14,89,78,74,80,74,72,97,88,67,30.05,29.92,11,3,13,0.00
2013-7-15,94,80,74,79,73,71,95,82,54,30.09,29.99,12,3,15,0.00
2013-7-16,90,79,75,75,73,70,94,81,55,30.12,30.04,26,4,37,0.00
2013-7-17,92,78,70,76,73,67,98,87,55,30.14,30.03,20,2,27,0.00
2013-7-18,89,77,72,75,73,71,98,87,60,30.09,30.01,19,3,19,0.00
2013-7-19,86,77,74,76,73,71,97,90,69,30.10,30.02,13,3,27,0.00
2013-7-20,90,79,73,78,74,71,97,85,64,30.09,29.99,12,3,18,0.00
2013-7-21,92,82,75,80,76,73,96,83,66,30.10,30.02,10,2,12,0.00
2013-7-22,90,83,79,79,77,75,92,81,67,30.11,30.04,12,2,14,0.00
2013-7-23,90,84,79,77,75,74,86,77,64,30.07,29.96,9,2,14,0.00
2013-7-24,90,84,79,78,76,75,90,78,64,29.99,29.89,11,3,12,0.15
2013-7-25,91,83,76,78,76,74,97,80,64,29.99,29.86,12,4,15,0.04
2013-7-26,94,84,76,80,77,73,97,79,52,30.00,29.93,10,2,12,0.00
2013-7-27,94,85,79,77,76,74,91,74,53,29.98,29.91,10,2,10,0.00
2013-7-28,91,83,78,78,75,73,91,78,64,30.04,29.92,8,1,8,0.00
2013-7-29,96,84,75,78,75,68,94,75,46,30.12,30.00,7,1,7,0.00
2013-7-30,96,83,77,79,75,67,92,78,54,30.14,30.04,21,2,25,0.00
2013-7-31,95,83,75,81,75,69,94,78,52,30.11,29.99,10,2,13,0.00
2013-8-1,91,82,76,79,75,71,90,79,59,30.03,29.93,16,2,19,0.00
2013-8-2,95,84,76,79,75,72,94,76,56,30.02,29.92,9,2,11,0.00
2013-8-3,94,85,78,80,76,73,91,74,59,30.08,29.98,10,1,12,0.00
2013-8-4,94,86,80,80,77,74,89,76,62,30.07,29.98,8,2,13,0.00
2013-8-5,95,87,79,80,78,75,93,75,58,30.01,29.91,11,2,11,0.00
2013-8-6,95,82,76,81,76,71,98,83,62,29.97,29.87,21,1,22,0.00
2013-8-7,94,82,74,79,76,70,96,83,54,29.94,29.86,21,2,21,0.00
2013-8-8,94,81,72,80,75,70,97,85,57,30.00,29.90,20,3,29,0.00
2013-8-9,95,80,73,78,75,70,98,85,56,30.04,29.93,14,2,17,0.00
2013-8-10,95,82,74,78,75,72,96,80,51,30.09,30.01,16,3,16,0.00
2013-8-11,96,85,77,79,76,72,92,75,51,30.12,30.03,12,2,13,0.00
2013-8-12,95,85,78,82,77,75,92,79,62,30.11,29.99,7,1,8,0.00
2013-8-13,95,85,78,79,76,73,91,76,58,30.03,29.92,11,2,11,0.00
2013-8-14,93,85,78,79,76,73,92,75,58,29.98,29.90,16,1,16,0.00
2013-8-15,89,83,77,77,75,73,89,78,62,30.01,29.92,17,3,18,0.00
2013-8-16,90,84,80,77,75,72,85,74,60,30.02,29.94,15,2,23,0.00
2013-8-17,92,82,74,79,75,70,98,81,58,30.05,29.95,19,3,24,0.00
2013-8-18,93,81,76,78,76,73,98,86,58,30.07,29.98,15,2,22,0.00
2013-8-19,95,81,73,78,75,69,98,85,56,30.04,29.94,18,3,18,0.00
2013-8-20,94,80,73,78,74,71,99,85,55,30.06,29.96,14,2,16,0.00
2013-8-21,96,82,75,81,76,72,99,84,54,30.08,29.94,14,2,18,0.00
2013-8-22,77,74,72,76,73,70,98,97,86,30.02,29.97,16,2,19,0.00
2013-8-23,92,81,76,79,76,72,99,84,58,29.99,29.94,11,2,16,0.00
2013-8-24,94,81,76,80,75,72,95,84,57,30.10,29.97,10,2,16,0.00
2013-8-25,89,79,75,77,74,73,96,86,63,30.14,30.05,11,1,15,0.00
2013-8-26,94,80,74,78,75,72,98,85,53,30.13,29.98,15,2,21,0.00
2013-8-27,93,79,73,77,74,69,98,86,49,30.04,29.95,15,2,17,0.00
2013-8-28,93,81,72,75,73,68,98,78,52,30.04,29.95,16,2,16,0.00
2013-8-29,95,84,74,77,74,71,94,75,52,30.02,29.92,11,2,12,0.00
2013-8-30,96,84,80,79,76,72,88,76,52,29.98,29.87,9,1,10,0.00
2013-8-31,90,81,72,79,75,71,99,83,62,29.98,29.86,12,1,15,0.00
2013-9-1,92,82,76,78,74,73,95,78,55,29.97,29.90,8,1,9,0.00
2013-9-2,94,84,76,78,75,73,95,77,55,30.00,29.91,8,1,10,0.00
2013-9-3,95,85,76,78,75,73,92,75,55,30.01,29.91,9,1,9,0.00
2013-9-4,96,81,73,79,75,70,98,83,54,30.07,29.95,22,2,22,0.00
2013-9-5,97,83,74,82,75,67,98,79,52,30.08,29.98,13,2,20,0.00
2013-9-6,96,83,76,80,76,70,93,79,57,30.04,29.92,12,2,13,0.00
2013-9-7,95,81,72,76,72,67,93,76,41,30.01,29.90,10,2,11,0.00
2013-9-8,94,82,73,75,73,70,94,75,51,29.95,29.85,11,2,12,0.00
2013-9-9,96,84,74,76,73,68,93,71,47,30.00,29.91,12,2,13,0.00
2013-9-10,93,83,74,75,72,66,94,70,45,30.06,29.97,17,2,18,0.00
2013-9-11,94,83,74,76,71,64,93,70,41,30.05,29.96,18,3,18,0.00
2013-9-12,93,82,75,77,74,71,95,78,55,30.00,29.86,10,2,11,0.00
2013-9-13,93,82,74,78,74,72,94,78,57,29.89,29.80,8,1,10,0.00
2013-9-14,94,84,76,77,75,73,92,75,55,29.96,29.82,8,1,9,0.00
2013-9-15,96,81,74,78,74,68,92,79,49,30.06,29.93,32,3,37,0.01
2013-9-16,94,79,73,77,74,70,97,84,53,30.05,29.96,15,2,18,0.19
2013-9-17,96,80,72,77,73,71,98,81,47,30.04,29.91,15,2,22,0.04
2013-9-18,91,80,74,78,74,71,96,83,57,30.01,29.93,17,2,25,0.00
2013-9-19,95,79,74,81,74,72,97,85,54,30.04,29.94,15,2,21,0.00
2013-9-20,91,80,72,74,72,69,97,79,52,30.01,29.87,15,2,15,0.10
2013-9-21,87,80,72,76,71,68,90,75,58,29.92,29.76,13,2,14,0.00
2013-9-22,86,80,77,79,76,72,97,86,70,29.83,29.73,16,2,19,0.00
2013-9-23,80,78,75,78,76,74,98,95,90,29.92,29.80,15,3,23,0.12
2013-9-24,80,77,73,78,75,72,98,94,87,29.93,29.82,18,4,21,0.01
2013-9-25,80,75,70,78,74,69,99,95,85,29.90,29.77,17,3,18,0.00
2013-9-26,91,82,75,81,76,71,94,83,66,29.86,29.77,11,3,13,0.00
2013-9-27,89,78,70,76,71,68,95,80,61,29.95,29.86,10,2,11,0.00
2013-9-28,90,78,70,76,71,68,96,80,52,29.98,29.90,12,2,13,0.00
2013-9-29,91,79,70,73,70,67,93,75,50,29.98,29.88,10,2,11,0.00
2013-9-30,91,79,73,74,72,69,94,79,55,29.98,29.90,13,2,13,0.00
2013-10-1,93,81,73,77,73,68,95,78,52,30.03,29.94,14,3,24,0.00
2013-10-2,90,80,73,74,71,70,91,75,53,30.03,29.94,16,3,17,0.00
2013-10-3,91,80,74,74,72,65,90,76,49,30.05,29.95,14,2,15,0.00
2013-10-4,91,81,76,75,73,64,91,79,45,30.07,29.98,10,2,13,0.00
2013-10-5,92,81,74,76,73,69,92,77,50,30.04,29.92,13,2,15,0.00
2013-10-6,90,80,74,75,73,66,95,78,50,29.97,29.84,12,2,13,0.00
2013-10-7,86,79,73,78,75,70,98,88,77,29.85,29.73,19,4,25,0.00
2013-10-8,90,81,74,77,75,70,93,82,64,29.94,29.78,12,3,13,0.00
2013-10-9,84,75,68,72,69,64,89,81,67,30.03,29.93,9,2,11,0.00
2013-10-10,87,75,64,71,67,63,96,78,55,30.04,29.95,9,1,13,0.00
2013-10-11,90,77,68,70,67,64,95,74,49,30.03,29.94,8,1,9,0.00
2013-10-12,89,77,68,70,65,62,90,69,42,30.04,29.96,10,1,11,0.00
2013-10-13,88,76,65,70,64,62,91,69,44,30.07,29.97,8,1,10,0.00
2013-10-14,88,76,66,71,67,63,95,74,52,30.04,29.92,11,2,12,0.00
2013-10-15,83,73,66,72,68,64,95,85,68,29.99,29.89,9,2,10,0.00
2013-10-16,86,75,68,72,69,67,98,82,59,29.96,29.89,10,1,10,0.00
2013-10-17,86,77,70,74,71,68,97,84,65,29.96,29.88,9,1,9,0.00
2013-10-18,94,78,70,77,72,68,97,82,55,29.96,29.88,11,1,14,0.00
2013-10-19,87,78,72,78,74,70,97,87,70,29.94,29.86,10,1,12,0.00
2013-10-20,90,80,74,77,74,71,97,82,56,29.94,29.85,8,1,9,0.00
2013-10-21,88,80,73,76,73,71,95,82,57,29.98,29.91,11,1,12,0.00
2013-10-22,84,76,72,77,73,71,98,89,71,29.94,29.81,19,2,20,0.19
2013-10-23,82,75,68,73,65,54,98,73,48,30.00,29.80,13,3,15,0.01
2013-10-24,77,67,60,59,50,45,81,56,41,30.15,29.99,10,2,12,0.00
2013-10-25,82,68,56,61,56,50,91,67,35,30.23,30.13,12,2,13,0.00
2013-10-26,80,67,57,60,57,54,89,71,47,30.19,30.09,11,2,13,0.00
2013-10-27,83,68,57,62,57,52,94,71,43,30.12,30.04,7,1,9,0.00
2013-10-28,86,70,60,62,58,50,86,67,30,30.18,30.07,9,2,10,0.00
2013-10-29,87,74,64,68,64,61,95,72,45,30.21,30.11,13,2,15,0.00
2013-10-30,89,76,67,71,66,64,92,74,48,30.21,30.07,12,2,13,0.00
2013-10-31,86,75,67,70,67,64,96,78,51,30.11,29.95,13,2,17,0.00
2013-11-1,82,76,71,74,72,69,96,88,75,29.98,29.86,22,4,24,0.00
2013-11-2,77,71,63,75,68,61,98,90,71,29.98,29.79,16,2,16,0.86
2013-11-3,81,67,58,61,52,42,97,62,27,30.11,29.96,11,2,13,0.00
2013-11-4,82,69,59,64,58,50,87,68,48,30.14,30.07,16,3,19,0.00
2013-11-5,86,74,63,69,66,62,96,78,57,30.13,30.03,15,3,18,0.00
2013-11-6,87,75,69,71,68,64,90,78,50,30.09,30.00,15,2,16,0.00
2013-11-7,83,73,67,70,68,65,95,85,63,30.05,29.96,9,1,10,0.00
2013-11-8,86,72,64,69,63,58,95,74,47,30.11,29.99,10,2,15,0.00
2013-11-9,82,72,63,68,63,59,85,73,61,30.14,30.06,17,3,19,0.00
2013-11-10,86,73,65,70,66,62,90,79,52,30.15,30.05,10,1,13,0.00
2013-11-11,86,72,65,70,66,62,93,81,59,30.14,30.05,11,2,13,0.00
2013-11-12,82,70,65,69,65,57,96,85,64,30.10,30.00,12,1,14,0.00
2013-11-13,69,61,52,57,50,46,80,67,53,30.29,30.07,18,4,20,0.00
2013-11-14,77,64,51,59,53,46,87,71,50,30.27,30.14,20,2,20,0.00
2013-11-15,72,67,63,66,62,57,92,83,72,30.16,30.03,10,1,13,0.05
2013-11-16,74,70,67,70,68,65,98,92,86,30.11,30.00,16,2,17,0.25
2013-11-17,82,74,68,72,68,65,94,83,68,30.06,29.98,14,3,15,0.00
2013-11-18,84,74,68,72,70,67,97,88,65,30.01,29.91,13,1,15,0.00
2013-11-19,84,74,66,73,68,60,98,84,64,29.96,29.86,10,1,11,0.00
2013-11-20,84,71,63,73,66,60,92,85,68,30.08,29.95,10,2,13,0.00
2013-11-21,87,75,70,72,70,68,94,84,59,30.16,30.06,18,3,23,0.00
2013-11-22,87,75,68,72,69,65,96,80,56,30.17,30.06,15,2,15,0.00
2013-11-23,84,72,64,70,66,63,96,82,55,30.10,30.01,11,2,12,0.00
2013-11-24,71,66,58,67,60,50,95,81,69,30.21,30.02,12,3,16,0.00
2013-11-25,74,67,58,63,58,51,85,74,63,30.19,30.02,22,5,23,0.00
2013-11-26,79,72,67,73,70,63,98,92,80,30.02,29.74,34,8,34,0.21
2013-11-27,71,63,48,70,56,40,98,80,67,30.19,29.72,19,6,25,0.19
2013-11-28,68,51,38,50,42,31,87,71,38,30.34,30.19,11,2,12,0.00
2013-11-29,76,61,50,57,52,47,92,75,48,30.34,30.24,12,2,14,0.00
2013-11-30,79,65,54,64,58,49,95,78,58,30.30,30.16,11,2,15,0.00
2013-12-1,74,62,59,64,60,58,98,92,72,30.18,29.98,8,1,10,0.00
2013-12-2,70,63,59,64,59,55,99,86,64,29.98,29.83,8,1,8,0.00
2013-12-3,76,67,56,68,62,55,97,86,66,29.96,29.86,16,3,17,0.00
2013-12-4,80,72,66,71,68,65,99,88,65,30.06,29.94,11,2,13,0.00
2013-12-5,83,72,66,68,66,65,98,85,59,30.14,30.05,13,2,15,0.00
2013-12-6,81,73,66,72,69,65,99,88,70,30.15,30.06,19,4,23,0.00
2013-12-7,86,73,67,71,68,66,98,86,55,30.21,30.12,10,1,11,0.00
2013-12-8,83,72,66,71,67,65,98,84,62,30.19,30.07,16,2,17,0.00
2013-12-9,80,72,66,72,68,65,97,88,74,30.16,30.06,19,3,23,0.00
2013-12-10,79,72,65,71,68,64,99,90,72,30.15,30.07,16,2,16,0.01
2013-12-11,82,70,63,68,64,58,95,83,61,30.23,30.13,16,2,16,0.00
2013-12-12,78,65,53,64,52,34,96,67,29,30.30,30.18,12,2,14,0.00
2013-12-13,75,62,49,60,51,39,85,69,45,30.27,30.08,16,2,17,0.00
2013-12-14,79,72,64,71,67,60,94,85,72,30.09,29.92,26,7,29,0.00
2013-12-15,73,67,58,72,63,53,98,86,71,30.12,29.87,20,4,23,0.00
2013-12-16,66,56,48,53,47,42,86,73,50,30.22,30.10,10,2,12,0.00
2013-12-17,75,57,46,52,46,39,89,71,29,30.25,30.14,7,1,9,0.00
2013-12-18,74,59,49,55,50,43,97,76,40,30.28,30.19,10,1,13,0.00
2013-12-19,77,60,49,59,52,44,88,74,47,30.25,30.14,12,1,14,0.00
2013-12-20,81,70,60,67,63,56,92,80,62,30.17,30.06,17,3,17,0.00
2013-12-21,82,74,67,71,68,65,96,83,66,30.10,29.99,20,5,24,0.00
2013-12-22,80,74,68,72,70,68,98,87,75,30.11,30.03,27,6,31,0.00
2013-12-23,80,73,68,74,71,67,98,92,80,30.14,30.06,23,5,29,0.00
2013-12-24,71,62,51,70,51,33,97,70,30,30.25,30.11,15,4,17,0.00
2013-12-25,76,61,47,60,49,35,76,65,54,30.25,30.10,18,2,18,0.00
2013-12-26,80,66,59,65,59,56,92,79,55,30.19,30.07,9,2,14,0.00
2013-12-27,73,65,61,66,61,57,93,87,77,30.23,30.12,11,2,15,0.00
2013-12-28,77,70,64,69,66,62,97,88,74,30.19,29.96,15,4,17,0.00
2013-12-29,74,69,63,71,67,61,97,94,90,30.01,29.87,24,4,26,0.29
2013-12-30,72,63,59,62,59,54,95,87,68,30.18,29.99,11,2,13,0.00
2013-12-31,73,64,60,57,52,50,82,68,47,30.28,30.14,8,1,11,0.00
2014-1-1,62,60,57,61,58,51,98,92,68,30.24,30.03,13,2,16,0.21
2014-1-2,74,66,60,72,65,55,100,97,83,30.03,29.83,25,5,29,0.10